sensor_id;sensor_type;location;lat;lon;timestamp;P1;durP1;ratioP1;P2;durP2;ratioP2
10244;SDS011;5167;52.164;10.530;2022-10-04T00:01:29;5.25;;;1.65;;
10244;SDS011;5167;52.164;10.530;2022-10-04T00:04:10;2.58;;;1.50;;
10244;SDS011;5167;52.164;10.530;2022-10-04T00:06:54;3.85;;;1.48;;
10244;SDS011;5167;52.164;10.530;2022-10-04T00:09:35;6.35;;;2.05;;
10244;SDS011;5167;52.164;10.530;2022-10-04T00:15:20;4.68;;;1.92;;
10244;SDS011;5167;52.164;10.530;2022-10-04T00:18:13;4.75;;;1.85;;
10244;SDS011;5167;52.164;10.530;2022-10-04T00:21:07;3.83;;;1.85;;
10244;SDS011;5167;52.164;10.530;2022-10-04T00:26:03;7.38;;;2.10;;
10244;SDS011;5167;52.164;10.530;2022-10-04T00:33:36;8.00;;;1.92;;
10244;SDS011;5167;52.164;10.530;2022-10-04T00:45:12;4.10;;;1.60;;
10244;SDS011;5167;52.164;10.530;2022-10-04T00:52:47;3.95;;;1.80;;
10244;SDS011;5167;52.164;10.530;2022-10-04T00:55:38;2.85;;;1.60;;
10244;SDS011;5167;52.164;10.530;2022-10-04T00:58:16;4.95;;;1.75;;
10244;SDS011;5167;52.164;10.530;2022-10-04T01:00:46;4.22;;;1.50;;
10244;SDS011;5167;52.164;10.530;2022-10-04T01:03:14;7.65;;;1.85;;
10244;SDS011;5167;52.164;10.530;2022-10-04T01:05:46;6.43;;;2.47;;
10244;SDS011;5167;52.164;10.530;2022-10-04T01:08:21;7.63;;;2.05;;
10244;SDS011;5167;52.164;10.530;2022-10-04T01:11:10;8.20;;;1.92;;
10244;SDS011;5167;52.164;10.530;2022-10-04T01:18:44;4.65;;;1.63;;
10244;SDS011;5167;52.164;10.530;2022-10-04T01:23:44;5.45;;;1.38;;
10244;SDS011;5167;52.164;10.530;2022-10-04T01:31:43;8.55;;;1.90;;
10244;SDS011;5167;52.164;10.530;2022-10-04T01:34:11;5.38;;;1.65;;
10244;SDS011;5167;52.164;10.530;2022-10-04T01:36:39;5.57;;;1.85;;
10244;SDS011;5167;52.164;10.530;2022-10-04T01:39:05;9.75;;;1.70;;
10244;SDS011;5167;52.164;10.530;2022-10-04T01:41:46;4.00;;;1.25;;
10244;SDS011;5167;52.164;10.530;2022-10-04T01:44:21;7.85;;;2.03;;
10244;SDS011;5167;52.164;10.530;2022-10-04T01:46:51;3.83;;;1.40;;
10244;SDS011;5167;52.164;10.530;2022-10-04T01:49:20;4.20;;;1.60;;
10244;SDS011;5167;52.164;10.530;2022-10-04T01:51:54;5.03;;;2.28;;
10244;SDS011;5167;52.164;10.530;2022-10-04T01:54:29;3.25;;;2.13;;
10244;SDS011;5167;52.164;10.530;2022-10-04T02:02:17;4.72;;;1.98;;
10244;SDS011;5167;52.164;10.530;2022-10-04T02:05:05;5.03;;;1.90;;
10244;SDS011;5167;52.164;10.530;2022-10-04T02:07:35;4.00;;;1.48;;
10244;SDS011;5167;52.164;10.530;2022-10-04T02:10:04;7.18;;;1.60;;
10244;SDS011;5167;52.164;10.530;2022-10-04T02:12:33;2.75;;;1.63;;
10244;SDS011;5167;52.164;10.530;2022-10-04T02:15:00;7.13;;;1.98;;
10244;SDS011;5167;52.164;10.530;2022-10-04T02:17:31;5.43;;;1.40;;
10244;SDS011;5167;52.164;10.530;2022-10-04T02:20:00;7.60;;;1.77;;
10244;SDS011;5167;52.164;10.530;2022-10-04T02:22:26;7.10;;;1.27;;
10244;SDS011;5167;52.164;10.530;2022-10-04T02:24:53;5.82;;;1.55;;
10244;SDS011;5167;52.164;10.530;2022-10-04T02:27:25;5.18;;;1.33;;
10244;SDS011;5167;52.164;10.530;2022-10-04T02:30:02;6.32;;;1.77;;
10244;SDS011;5167;52.164;10.530;2022-10-04T02:32:31;3.30;;;1.40;;
10244;SDS011;5167;52.164;10.530;2022-10-04T02:35:15;2.20;;;1.30;;
10244;SDS011;5167;52.164;10.530;2022-10-04T02:37:42;3.67;;;1.40;;
10244;SDS011;5167;52.164;10.530;2022-10-04T02:40:12;2.45;;;1.60;;
10244;SDS011;5167;52.164;10.530;2022-10-04T02:47:59;5.63;;;2.40;;
10244;SDS011;5167;52.164;10.530;2022-10-04T02:50:38;13.25;;;2.13;;
10244;SDS011;5167;52.164;10.530;2022-10-04T02:55:42;3.28;;;1.50;;
10244;SDS011;5167;52.164;10.530;2022-10-04T02:58:09;3.20;;;1.40;;
10244;SDS011;5167;52.164;10.530;2022-10-04T03:00:46;5.32;;;1.30;;
10244;SDS011;5167;52.164;10.530;2022-10-04T03:06:08;9.05;;;1.40;;
10244;SDS011;5167;52.164;10.530;2022-10-04T03:08:43;3.95;;;1.60;;
10244;SDS011;5167;52.164;10.530;2022-10-04T03:11:10;6.10;;;1.55;;
10244;SDS011;5167;52.164;10.530;2022-10-04T03:13:38;4.57;;;1.73;;
10244;SDS011;5167;52.164;10.530;2022-10-04T03:16:07;2.92;;;1.63;;
10244;SDS011;5167;52.164;10.530;2022-10-04T03:18:33;7.10;;;1.52;;
10244;SDS011;5167;52.164;10.530;2022-10-04T03:21:07;5.25;;;2.65;;
10244;SDS011;5167;52.164;10.530;2022-10-04T03:23:35;4.13;;;1.75;;
10244;SDS011;5167;52.164;10.530;2022-10-04T03:26:10;2.45;;;1.38;;
10244;SDS011;5167;52.164;10.530;2022-10-04T03:29:00;5.28;;;1.50;;
10244;SDS011;5167;52.164;10.530;2022-10-04T03:31:29;3.42;;;1.50;;
10244;SDS011;5167;52.164;10.530;2022-10-04T03:33:57;4.88;;;1.25;;
10244;SDS011;5167;52.164;10.530;2022-10-04T03:36:23;3.50;;;1.60;;
10244;SDS011;5167;52.164;10.530;2022-10-04T03:38:51;7.50;;;1.88;;
10244;SDS011;5167;52.164;10.530;2022-10-04T03:41:20;3.42;;;1.52;;
10244;SDS011;5167;52.164;10.530;2022-10-04T03:43:49;2.22;;;1.02;;
10244;SDS011;5167;52.164;10.530;2022-10-04T03:46:17;2.00;;;1.27;;
10244;SDS011;5167;52.164;10.530;2022-10-04T03:48:48;6.80;;;1.60;;
10244;SDS011;5167;52.164;10.530;2022-10-04T03:51:17;4.13;;;1.48;;
10244;SDS011;5167;52.164;10.530;2022-10-04T03:53:46;8.18;;;1.85;;
10244;SDS011;5167;52.164;10.530;2022-10-04T03:56:16;7.97;;;1.75;;
10244;SDS011;5167;52.164;10.530;2022-10-04T03:58:45;7.75;;;1.60;;
10244;SDS011;5167;52.164;10.530;2022-10-04T04:03:50;4.30;;;1.80;;
10244;SDS011;5167;52.164;10.530;2022-10-04T04:06:20;4.60;;;1.65;;
10244;SDS011;5167;52.164;10.530;2022-10-04T04:08:50;6.13;;;2.97;;
10244;SDS011;5167;52.164;10.530;2022-10-04T04:11:25;2.40;;;1.27;;
10244;SDS011;5167;52.164;10.530;2022-10-04T04:13:54;9.13;;;1.58;;
10244;SDS011;5167;52.164;10.530;2022-10-04T04:16:24;3.17;;;1.70;;
10244;SDS011;5167;52.164;10.530;2022-10-04T04:18:51;6.90;;;1.58;;
10244;SDS011;5167;52.164;10.530;2022-10-04T04:21:19;5.75;;;1.67;;
10244;SDS011;5167;52.164;10.530;2022-10-04T04:23:49;3.60;;;1.42;;
10244;SDS011;5167;52.164;10.530;2022-10-04T04:26:38;8.25;;;1.92;;
10244;SDS011;5167;52.164;10.530;2022-10-04T04:32:01;5.72;;;2.05;;
10244;SDS011;5167;52.164;10.530;2022-10-04T04:34:31;6.93;;;1.60;;
10244;SDS011;5167;52.164;10.530;2022-10-04T04:36:58;2.03;;;1.63;;
10244;SDS011;5167;52.164;10.530;2022-10-04T04:39:27;8.57;;;1.90;;
10244;SDS011;5167;52.164;10.530;2022-10-04T04:45:01;1.70;;;1.13;;
10244;SDS011;5167;52.164;10.530;2022-10-04T04:47:38;3.88;;;1.55;;
10244;SDS011;5167;52.164;10.530;2022-10-04T04:50:12;4.43;;;2.20;;
10244;SDS011;5167;52.164;10.530;2022-10-04T04:53:04;6.00;;;2.03;;
10244;SDS011;5167;52.164;10.530;2022-10-04T04:55:33;4.63;;;1.92;;
10244;SDS011;5167;52.164;10.530;2022-10-04T04:58:20;4.82;;;1.63;;
10244;SDS011;5167;52.164;10.530;2022-10-04T05:00:56;3.53;;;1.73;;
10244;SDS011;5167;52.164;10.530;2022-10-04T05:03:25;6.80;;;1.80;;
10244;SDS011;5167;52.164;10.530;2022-10-04T05:05:54;4.35;;;1.38;;
10244;SDS011;5167;52.164;10.530;2022-10-04T05:08:23;3.53;;;1.75;;
10244;SDS011;5167;52.164;10.530;2022-10-04T05:13:49;4.13;;;1.45;;
10244;SDS011;5167;52.164;10.530;2022-10-04T05:16:20;2.67;;;1.20;;
10244;SDS011;5167;52.164;10.530;2022-10-04T05:18:57;6.57;;;1.75;;
10244;SDS011;5167;52.164;10.530;2022-10-04T05:21:31;7.25;;;1.90;;
10244;SDS011;5167;52.164;10.530;2022-10-04T05:24:06;8.40;;;2.50;;
10244;SDS011;5167;52.164;10.530;2022-10-04T05:26:38;7.93;;;1.67;;
10244;SDS011;5167;52.164;10.530;2022-10-04T05:29:07;4.82;;;1.92;;
10244;SDS011;5167;52.164;10.530;2022-10-04T05:34:28;4.65;;;1.30;;
10244;SDS011;5167;52.164;10.530;2022-10-04T05:42:36;4.22;;;1.42;;
10244;SDS011;5167;52.164;10.530;2022-10-04T05:47:51;6.97;;;1.90;;
10244;SDS011;5167;52.164;10.530;2022-10-04T05:52:48;4.68;;;1.83;;
10244;SDS011;5167;52.164;10.530;2022-10-04T05:55:28;5.10;;;1.67;;
10244;SDS011;5167;52.164;10.530;2022-10-04T06:04:08;5.93;;;2.05;;
10244;SDS011;5167;52.164;10.530;2022-10-04T06:12:09;5.03;;;1.52;;
10244;SDS011;5167;52.164;10.530;2022-10-04T06:20:42;5.95;;;2.00;;
10244;SDS011;5167;52.164;10.530;2022-10-04T06:23:21;5.75;;;1.88;;
10244;SDS011;5167;52.164;10.530;2022-10-04T06:26:24;8.90;;;2.10;;
10244;SDS011;5167;52.164;10.530;2022-10-04T06:28:45;8.13;;;1.92;;
10244;SDS011;5167;52.164;10.530;2022-10-04T06:48:29;5.65;;;1.80;;
10244;SDS011;5167;52.164;10.530;2022-10-04T06:56:45;6.35;;;1.90;;
10244;SDS011;5167;52.164;10.530;2022-10-04T07:02:05;10.32;;;2.10;;
10244;SDS011;5167;52.164;10.530;2022-10-04T07:12:32;3.53;;;1.95;;
10244;SDS011;5167;52.164;10.530;2022-10-04T07:15:03;6.30;;;2.03;;
10244;SDS011;5167;52.164;10.530;2022-10-04T07:17:49;8.80;;;2.13;;
10244;SDS011;5167;52.164;10.530;2022-10-04T07:20:21;8.25;;;2.80;;
10244;SDS011;5167;52.164;10.530;2022-10-04T07:22:54;6.50;;;2.60;;
10244;SDS011;5167;52.164;10.530;2022-10-04T07:25:45;11.40;;;2.72;;
10244;SDS011;5167;52.164;10.530;2022-10-04T07:28:15;7.70;;;3.00;;
10244;SDS011;5167;52.164;10.530;2022-10-04T07:31:24;7.72;;;3.05;;
10244;SDS011;5167;52.164;10.530;2022-10-04T07:33:54;6.80;;;2.55;;
10244;SDS011;5167;52.164;10.530;2022-10-04T07:36:30;6.22;;;2.75;;
10244;SDS011;5167;52.164;10.530;2022-10-04T07:39:15;7.57;;;2.35;;
10244;SDS011;5167;52.164;10.530;2022-10-04T07:41:46;6.22;;;1.90;;
10244;SDS011;5167;52.164;10.530;2022-10-04T07:44:36;9.60;;;2.40;;
10244;SDS011;5167;52.164;10.530;2022-10-04T07:49:56;8.50;;;2.72;;
10244;SDS011;5167;52.164;10.530;2022-10-04T07:57:21;2.30;;;1.63;;
10244;SDS011;5167;52.164;10.530;2022-10-04T08:05:33;5.50;;;2.08;;
10244;SDS011;5167;52.164;10.530;2022-10-04T08:25:26;3.97;;;2.28;;
10244;SDS011;5167;52.164;10.530;2022-10-04T08:28:20;5.20;;;2.30;;
10244;SDS011;5167;52.164;10.530;2022-10-04T08:39:32;8.32;;;2.58;;
10244;SDS011;5167;52.164;10.530;2022-10-04T08:47:37;11.13;;;3.13;;
10244;SDS011;5167;52.164;10.530;2022-10-04T08:52:57;15.10;;;3.00;;
10244;SDS011;5167;52.164;10.530;2022-10-04T08:55:51;3.72;;;2.38;;
10244;SDS011;5167;52.164;10.530;2022-10-04T09:23:02;8.23;;;2.95;;
10244;SDS011;5167;52.164;10.530;2022-10-04T09:39:49;7.28;;;2.97;;
10244;SDS011;5167;52.164;10.530;2022-10-04T09:54:13;7.35;;;2.45;;
10244;SDS011;5167;52.164;10.530;2022-10-04T10:00:09;9.27;;;2.40;;
10244;SDS011;5167;52.164;10.530;2022-10-04T11:22:25;2.40;;;1.50;;
10244;SDS011;5167;52.164;10.530;2022-10-04T11:28:04;3.10;;;1.42;;
10244;SDS011;5167;52.164;10.530;2022-10-04T11:31:28;3.95;;;1.60;;
10244;SDS011;5167;52.164;10.530;2022-10-04T12:07:02;3.13;;;1.50;;
10244;SDS011;5167;52.164;10.530;2022-10-04T12:15:28;6.78;;;2.45;;
10244;SDS011;5167;52.164;10.530;2022-10-04T12:18:21;5.95;;;2.20;;
10244;SDS011;5167;52.164;10.530;2022-10-04T12:29:35;3.42;;;2.10;;
10244;SDS011;5167;52.164;10.530;2022-10-04T12:32:35;10.10;;;2.67;;
10244;SDS011;5167;52.164;10.530;2022-10-04T12:43:34;3.78;;;2.17;;
10244;SDS011;5167;52.164;10.530;2022-10-04T12:46:42;4.50;;;1.88;;
10244;SDS011;5167;52.164;10.530;2022-10-04T12:52:23;6.13;;;2.13;;
10244;SDS011;5167;52.164;10.530;2022-10-04T13:22:18;5.82;;;2.65;;
10244;SDS011;5167;52.164;10.530;2022-10-04T13:56:52;3.30;;;1.63;;
10244;SDS011;5167;52.164;10.530;2022-10-04T13:59:44;3.95;;;1.65;;
10244;SDS011;5167;52.164;10.530;2022-10-04T14:49:57;2.55;;;1.77;;
10244;SDS011;5167;52.164;10.530;2022-10-04T14:58:21;2.75;;;1.80;;
10244;SDS011;5167;52.164;10.530;2022-10-04T15:01:17;4.55;;;2.08;;
10244;SDS011;5167;52.164;10.530;2022-10-04T15:06:27;2.97;;;1.98;;
10244;SDS011;5167;52.164;10.530;2022-10-04T15:09:22;1.65;;;1.55;;
10244;SDS011;5167;52.164;10.530;2022-10-04T15:20:19;5.15;;;1.48;;
10244;SDS011;5167;52.164;10.530;2022-10-04T15:23:14;2.58;;;1.98;;
10244;SDS011;5167;52.164;10.530;2022-10-04T15:25:43;2.05;;;1.50;;
10244;SDS011;5167;52.164;10.530;2022-10-04T15:30:52;2.42;;;1.85;;
10244;SDS011;5167;52.164;10.530;2022-10-04T15:35:52;3.28;;;2.10;;
10244;SDS011;5167;52.164;10.530;2022-10-04T15:38:48;5.32;;;2.50;;
10244;SDS011;5167;52.164;10.530;2022-10-04T15:47:32;2.88;;;2.33;;
10244;SDS011;5167;52.164;10.530;2022-10-04T15:50:07;4.32;;;1.83;;
10244;SDS011;5167;52.164;10.530;2022-10-04T15:58:36;3.45;;;1.55;;
10244;SDS011;5167;52.164;10.530;2022-10-04T16:12:25;4.93;;;2.08;;
10244;SDS011;5167;52.164;10.530;2022-10-04T16:20:23;3.20;;;1.83;;
10244;SDS011;5167;52.164;10.530;2022-10-04T16:26:01;3.28;;;2.42;;
10244;SDS011;5167;52.164;10.530;2022-10-04T16:34:36;6.68;;;2.95;;
10244;SDS011;5167;52.164;10.530;2022-10-04T16:39:38;6.57;;;3.17;;
10244;SDS011;5167;52.164;10.530;2022-10-04T16:42:30;7.60;;;2.38;;
10244;SDS011;5167;52.164;10.530;2022-10-04T16:47:36;3.28;;;2.22;;
10244;SDS011;5167;52.164;10.530;2022-10-04T16:50:42;3.63;;;2.00;;
10244;SDS011;5167;52.164;10.530;2022-10-04T16:56:17;4.03;;;1.98;;
10244;SDS011;5167;52.164;10.530;2022-10-04T16:58:48;5.07;;;2.38;;
10244;SDS011;5167;52.164;10.530;2022-10-04T17:06:33;4.70;;;2.10;;
10244;SDS011;5167;52.164;10.530;2022-10-04T17:12:16;3.40;;;2.17;;
10244;SDS011;5167;52.164;10.530;2022-10-04T17:14:56;2.33;;;1.90;;
10244;SDS011;5167;52.164;10.530;2022-10-04T17:26:35;6.85;;;3.05;;
10244;SDS011;5167;52.164;10.530;2022-10-04T17:29:22;4.03;;;2.72;;
10244;SDS011;5167;52.164;10.530;2022-10-04T17:37:20;4.28;;;2.33;;
10244;SDS011;5167;52.164;10.530;2022-10-04T17:39:55;4.40;;;2.47;;
10244;SDS011;5167;52.164;10.530;2022-10-04T17:42:51;2.55;;;1.80;;
10244;SDS011;5167;52.164;10.530;2022-10-04T17:48:22;2.90;;;2.53;;
10244;SDS011;5167;52.164;10.530;2022-10-04T17:54:14;7.63;;;2.10;;
10244;SDS011;5167;52.164;10.530;2022-10-04T17:59:58;3.67;;;2.30;;
10244;SDS011;5167;52.164;10.530;2022-10-04T18:10:37;2.78;;;2.17;;
10244;SDS011;5167;52.164;10.530;2022-10-04T18:13:20;3.30;;;2.03;;
10244;SDS011;5167;52.164;10.530;2022-10-04T18:18:48;4.15;;;2.20;;
10244;SDS011;5167;52.164;10.530;2022-10-04T18:23:50;6.13;;;2.20;;
10244;SDS011;5167;52.164;10.530;2022-10-04T18:26:21;3.80;;;2.05;;
10244;SDS011;5167;52.164;10.530;2022-10-04T18:28:50;4.50;;;2.17;;
10244;SDS011;5167;52.164;10.530;2022-10-04T18:33:53;4.32;;;2.35;;
10244;SDS011;5167;52.164;10.530;2022-10-04T18:36:22;3.58;;;2.25;;
10244;SDS011;5167;52.164;10.530;2022-10-04T18:41:36;4.25;;;2.03;;
10244;SDS011;5167;52.164;10.530;2022-10-04T18:44:18;3.58;;;2.10;;
10244;SDS011;5167;52.164;10.530;2022-10-04T18:46:46;2.20;;;2.08;;
10244;SDS011;5167;52.164;10.530;2022-10-04T18:57:39;4.40;;;2.30;;
10244;SDS011;5167;52.164;10.530;2022-10-04T19:00:30;5.40;;;2.70;;
10244;SDS011;5167;52.164;10.530;2022-10-04T19:15:00;6.22;;;2.88;;
10244;SDS011;5167;52.164;10.530;2022-10-04T19:17:20;6.03;;;3.15;;
10244;SDS011;5167;52.164;10.530;2022-10-04T19:23:02;3.92;;;2.70;;
10244;SDS011;5167;52.164;10.530;2022-10-04T19:26:13;5.18;;;3.03;;
10244;SDS011;5167;52.164;10.530;2022-10-04T19:29:25;5.22;;;3.10;;
10244;SDS011;5167;52.164;10.530;2022-10-04T19:32:58;5.40;;;2.92;;
10244;SDS011;5167;52.164;10.530;2022-10-04T19:35:13;7.10;;;3.00;;
10244;SDS011;5167;52.164;10.530;2022-10-04T19:45:40;5.47;;;2.35;;
10244;SDS011;5167;52.164;10.530;2022-10-04T19:48:15;3.47;;;2.53;;
10244;SDS011;5167;52.164;10.530;2022-10-04T19:50:48;4.53;;;2.88;;
10244;SDS011;5167;52.164;10.530;2022-10-04T19:53:27;4.38;;;2.70;;
10244;SDS011;5167;52.164;10.530;2022-10-04T19:56:08;4.07;;;2.90;;
10244;SDS011;5167;52.164;10.530;2022-10-04T19:58:43;4.72;;;2.90;;
10244;SDS011;5167;52.164;10.530;2022-10-04T20:01:18;5.05;;;2.65;;
10244;SDS011;5167;52.164;10.530;2022-10-04T20:03:47;3.10;;;2.42;;
10244;SDS011;5167;52.164;10.530;2022-10-04T20:06:36;8.35;;;3.22;;
10244;SDS011;5167;52.164;10.530;2022-10-04T20:09:22;5.60;;;2.38;;
10244;SDS011;5167;52.164;10.530;2022-10-04T20:17:43;6.13;;;2.60;;
10244;SDS011;5167;52.164;10.530;2022-10-04T20:20:12;6.18;;;2.75;;
10244;SDS011;5167;52.164;10.530;2022-10-04T20:22:58;7.68;;;3.28;;
10244;SDS011;5167;52.164;10.530;2022-10-04T20:28:08;5.18;;;2.75;;
10244;SDS011;5167;52.164;10.530;2022-10-04T20:30:56;4.75;;;2.47;;
10244;SDS011;5167;52.164;10.530;2022-10-04T20:43:57;2.38;;;1.60;;
10244;SDS011;5167;52.164;10.530;2022-10-04T20:46:26;4.90;;;2.00;;
10244;SDS011;5167;52.164;10.530;2022-10-04T20:49:02;2.85;;;1.88;;
10244;SDS011;5167;52.164;10.530;2022-10-04T20:51:45;3.25;;;2.33;;
10244;SDS011;5167;52.164;10.530;2022-10-04T20:54:16;3.90;;;2.00;;
10244;SDS011;5167;52.164;10.530;2022-10-04T20:56:44;3.92;;;2.13;;
10244;SDS011;5167;52.164;10.530;2022-10-04T20:59:15;3.47;;;1.90;;
10244;SDS011;5167;52.164;10.530;2022-10-04T21:01:42;3.47;;;2.10;;
10244;SDS011;5167;52.164;10.530;2022-10-04T21:04:24;2.05;;;1.65;;
10244;SDS011;5167;52.164;10.530;2022-10-04T21:06:58;5.55;;;1.95;;
10244;SDS011;5167;52.164;10.530;2022-10-04T21:09:24;3.88;;;2.22;;
10244;SDS011;5167;52.164;10.530;2022-10-04T21:11:52;4.30;;;2.40;;
10244;SDS011;5167;52.164;10.530;2022-10-04T21:14:25;4.10;;;1.88;;
10244;SDS011;5167;52.164;10.530;2022-10-04T21:16:53;2.88;;;2.10;;
10244;SDS011;5167;52.164;10.530;2022-10-04T21:22:03;3.33;;;1.67;;
10244;SDS011;5167;52.164;10.530;2022-10-04T21:27:01;5.00;;;1.73;;
10244;SDS011;5167;52.164;10.530;2022-10-04T21:29:29;4.07;;;1.80;;
10244;SDS011;5167;52.164;10.530;2022-10-04T21:31:55;1.88;;;1.77;;
10244;SDS011;5167;52.164;10.530;2022-10-04T21:34:22;3.35;;;2.35;;
10244;SDS011;5167;52.164;10.530;2022-10-04T21:36:48;3.42;;;1.88;;
10244;SDS011;5167;52.164;10.530;2022-10-04T21:39:14;5.55;;;1.67;;
10244;SDS011;5167;52.164;10.530;2022-10-04T21:41:40;2.88;;;2.15;;
10244;SDS011;5167;52.164;10.530;2022-10-04T21:44:05;3.75;;;1.70;;
10244;SDS011;5167;52.164;10.530;2022-10-04T21:46:31;2.72;;;1.63;;
10244;SDS011;5167;52.164;10.530;2022-10-04T21:48:57;3.72;;;2.10;;
10244;SDS011;5167;52.164;10.530;2022-10-04T21:51:23;5.28;;;1.95;;
10244;SDS011;5167;52.164;10.530;2022-10-04T21:53:48;3.58;;;2.67;;
10244;SDS011;5167;52.164;10.530;2022-10-04T21:56:14;3.88;;;1.73;;
10244;SDS011;5167;52.164;10.530;2022-10-04T21:58:40;2.55;;;2.00;;
10244;SDS011;5167;52.164;10.530;2022-10-04T22:01:05;2.83;;;1.95;;
10244;SDS011;5167;52.164;10.530;2022-10-04T22:03:32;5.18;;;1.75;;
10244;SDS011;5167;52.164;10.530;2022-10-04T22:05:57;2.55;;;1.80;;
10244;SDS011;5167;52.164;10.530;2022-10-04T22:08:23;4.90;;;2.45;;
10244;SDS011;5167;52.164;10.530;2022-10-04T22:10:49;2.17;;;1.88;;
10244;SDS011;5167;52.164;10.530;2022-10-04T22:13:14;3.05;;;1.88;;
10244;SDS011;5167;52.164;10.530;2022-10-04T22:15:40;7.88;;;1.80;;
10244;SDS011;5167;52.164;10.530;2022-10-04T22:18:06;4.95;;;2.22;;
10244;SDS011;5167;52.164;10.530;2022-10-04T22:20:31;2.13;;;1.95;;
10244;SDS011;5167;52.164;10.530;2022-10-04T22:22:58;6.15;;;1.95;;
10244;SDS011;5167;52.164;10.530;2022-10-04T22:25:25;4.65;;;1.70;;
10244;SDS011;5167;52.164;10.530;2022-10-04T22:27:52;2.80;;;2.13;;
10244;SDS011;5167;52.164;10.530;2022-10-04T22:30:28;2.58;;;1.80;;
10244;SDS011;5167;52.164;10.530;2022-10-04T22:32:59;3.47;;;1.77;;
10244;SDS011;5167;52.164;10.530;2022-10-04T22:35:27;2.80;;;1.70;;
10244;SDS011;5167;52.164;10.530;2022-10-04T22:37:55;3.53;;;2.00;;
10244;SDS011;5167;52.164;10.530;2022-10-04T22:40:22;4.20;;;1.98;;
10244;SDS011;5167;52.164;10.530;2022-10-04T22:42:49;4.03;;;2.20;;
10244;SDS011;5167;52.164;10.530;2022-10-04T22:45:23;4.40;;;2.22;;
10244;SDS011;5167;52.164;10.530;2022-10-04T22:47:54;2.35;;;1.88;;
10244;SDS011;5167;52.164;10.530;2022-10-04T22:50:31;4.05;;;1.80;;
10244;SDS011;5167;52.164;10.530;2022-10-04T22:53:20;2.53;;;2.17;;
10244;SDS011;5167;52.164;10.530;2022-10-04T22:55:50;2.72;;;2.35;;
10244;SDS011;5167;52.164;10.530;2022-10-04T22:58:16;2.50;;;2.10;;
10244;SDS011;5167;52.164;10.530;2022-10-04T23:00:42;2.15;;;2.03;;
10244;SDS011;5167;52.164;10.530;2022-10-04T23:05:55;6.72;;;2.20;;
10244;SDS011;5167;52.164;10.530;2022-10-04T23:08:22;3.08;;;1.95;;
10244;SDS011;5167;52.164;10.530;2022-10-04T23:10:51;2.88;;;1.85;;
10244;SDS011;5167;52.164;10.530;2022-10-04T23:13:21;3.13;;;2.55;;
10244;SDS011;5167;52.164;10.530;2022-10-04T23:15:48;4.70;;;2.15;;
10244;SDS011;5167;52.164;10.530;2022-10-04T23:18:14;3.72;;;2.72;;
10244;SDS011;5167;52.164;10.530;2022-10-04T23:20:40;5.07;;;2.88;;
10244;SDS011;5167;52.164;10.530;2022-10-04T23:23:10;7.90;;;2.75;;
10244;SDS011;5167;52.164;10.530;2022-10-04T23:25:45;5.43;;;2.00;;
10244;SDS011;5167;52.164;10.530;2022-10-04T23:28:14;3.42;;;2.35;;
10244;SDS011;5167;52.164;10.530;2022-10-04T23:30:42;4.53;;;2.13;;
10244;SDS011;5167;52.164;10.530;2022-10-04T23:33:15;3.25;;;2.35;;
10244;SDS011;5167;52.164;10.530;2022-10-04T23:35:45;4.35;;;2.30;;
10244;SDS011;5167;52.164;10.530;2022-10-04T23:38:13;2.53;;;2.33;;
10244;SDS011;5167;52.164;10.530;2022-10-04T23:40:41;3.70;;;2.35;;
10244;SDS011;5167;52.164;10.530;2022-10-04T23:43:14;7.32;;;2.38;;
10244;SDS011;5167;52.164;10.530;2022-10-04T23:45:44;4.55;;;2.35;;
10244;SDS011;5167;52.164;10.530;2022-10-04T23:48:10;3.28;;;2.53;;
10244;SDS011;5167;52.164;10.530;2022-10-04T23:50:42;3.03;;;2.30;;
10244;SDS011;5167;52.164;10.530;2022-10-04T23:53:13;7.38;;;2.80;;
10244;SDS011;5167;52.164;10.530;2022-10-04T23:55:46;6.05;;;2.30;;
10244;SDS011;5167;52.164;10.530;2022-10-04T23:58:16;5.40;;;2.15;;
